sensor_id;sensor_type;location;lat;lon;timestamp;pressure;altitude;pressure_sealevel;temperature;humidity
64404;BME280;50726;54.912;-8.392;2023-02-23T00:01:48;101836.06;;;26.85;40.65
64404;BME280;50726;54.912;-8.392;2023-02-23T00:04:14;101836.09;;;27.58;40.63
64404;BME280;50726;54.912;-8.392;2023-02-23T00:06:39;101833.03;;;26.90;41.37
64404;BME280;50726;54.912;-8.392;2023-02-23T00:09:06;101839.31;;;25.33;42.11
64404;BME280;50726;54.912;-8.392;2023-02-23T00:11:38;101840.63;;;25.40;42.81
64404;BME280;50726;54.912;-8.392;2023-02-23T00:14:04;101851.63;;;25.63;43.08
64404;BME280;50726;54.912;-8.392;2023-02-23T00:16:33;101846.13;;;25.52;42.90
64404;BME280;50726;54.912;-8.392;2023-02-23T00:18:59;101841.06;;;26.00;42.98
64404;BME280;50726;54.912;-8.392;2023-02-23T00:21:31;101842.72;;;26.79;41.86
64404;BME280;50726;54.912;-8.392;2023-02-23T00:24:10;101853.03;;;25.69;43.04
64404;BME280;50726;54.912;-8.392;2023-02-23T00:26:38;101850.53;;;26.32;42.13
64404;BME280;50726;54.912;-8.392;2023-02-23T00:29:11;101865.53;;;24.13;44.36
64404;BME280;50726;54.912;-8.392;2023-02-23T00:31:38;101864.25;;;25.33;43.72
64404;BME280;50726;54.912;-8.392;2023-02-23T00:34:04;101872.56;;;23.83;44.19
64404;BME280;50726;54.912;-8.392;2023-02-23T00:36:33;101872.50;;;24.88;42.38
64404;BME280;50726;54.912;-8.392;2023-02-23T00:39:03;101873.56;;;25.28;43.31
64404;BME280;50726;54.912;-8.392;2023-02-23T00:41:44;101882.59;;;25.12;44.14
64404;BME280;50726;54.912;-8.392;2023-02-23T00:44:10;101883.63;;;26.05;41.90
64404;BME280;50726;54.912;-8.392;2023-02-23T00:46:40;101884.81;;;26.79;40.87
64404;BME280;50726;54.912;-8.392;2023-02-23T00:49:08;101881.84;;;26.19;42.04
64404;BME280;50726;54.912;-8.392;2023-02-23T00:51:35;101882.50;;;25.56;42.81
64404;BME280;50726;54.912;-8.392;2023-02-23T00:54:02;101880.47;;;25.72;43.93
64404;BME280;50726;54.912;-8.392;2023-02-23T00:56:28;101872.31;;;26.91;42.39
64404;BME280;50726;54.912;-8.392;2023-02-23T00:58:54;101869.72;;;27.02;41.47
64404;BME280;50726;54.912;-8.392;2023-02-23T01:01:21;101866.94;;;26.53;41.30
64404;BME280;50726;54.912;-8.392;2023-02-23T01:03:47;101872.84;;;25.39;43.14
64404;BME280;50726;54.912;-8.392;2023-02-23T01:06:16;101874.06;;;25.75;42.94
64404;BME280;50726;54.912;-8.392;2023-02-23T01:08:43;101874.56;;;25.67;43.04
64404;BME280;50726;54.912;-8.392;2023-02-23T01:11:15;101877.47;;;26.31;42.47
64404;BME280;50726;54.912;-8.392;2023-02-23T01:13:43;101882.81;;;24.80;44.26
64404;BME280;50726;54.912;-8.392;2023-02-23T01:16:14;101877.66;;;27.17;42.58
64404;BME280;50726;54.912;-8.392;2023-02-23T01:18:43;101888.09;;;28.86;41.29
64404;BME280;50726;54.912;-8.392;2023-02-23T01:21:18;101885.03;;;30.32;39.07
64404;BME280;50726;54.912;-8.392;2023-02-23T01:23:44;101883.03;;;30.65;38.67
64404;BME280;50726;54.912;-8.392;2023-02-23T01:26:28;101882.81;;;29.40;39.28
64404;BME280;50726;54.912;-8.392;2023-02-23T01:28:57;101884.31;;;30.30;38.38
64404;BME280;50726;54.912;-8.392;2023-02-23T01:31:23;101881.75;;;30.07;38.40
64404;BME280;50726;54.912;-8.392;2023-02-23T01:33:56;101884.28;;;30.51;35.86
64404;BME280;50726;54.912;-8.392;2023-02-23T01:36:24;101881.97;;;30.46;37.48
64404;BME280;50726;54.912;-8.392;2023-02-23T01:38:52;101884.03;;;31.15;35.33
64404;BME280;50726;54.912;-8.392;2023-02-23T01:41:25;101884.72;;;29.17;37.14
64404;BME280;50726;54.912;-8.392;2023-02-23T01:46:39;101879.66;;;29.68;37.59
64404;BME280;50726;54.912;-8.392;2023-02-23T01:49:07;101889.16;;;29.39;37.86
64404;BME280;50726;54.912;-8.392;2023-02-23T01:52:20;101887.31;;;29.07;36.45
64404;BME280;50726;54.912;-8.392;2023-02-23T01:54:31;101893.41;;;29.20;37.93
64404;BME280;50726;54.912;-8.392;2023-02-23T01:57:01;101893.03;;;29.25;37.65
64404;BME280;50726;54.912;-8.392;2023-02-23T01:59:41;101891.88;;;30.36;35.85
64404;BME280;50726;54.912;-8.392;2023-02-23T02:02:07;101890.63;;;29.76;37.14
64404;BME280;50726;54.912;-8.392;2023-02-23T02:04:35;101895.50;;;30.25;35.55
64404;BME280;50726;54.912;-8.392;2023-02-23T02:07:12;101904.41;;;29.94;36.81
64404;BME280;50726;54.912;-8.392;2023-02-23T02:09:40;101906.94;;;28.63;36.65
64404;BME280;50726;54.912;-8.392;2023-02-23T02:12:26;101907.25;;;27.77;37.35
64404;BME280;50726;54.912;-8.392;2023-02-23T02:14:51;101917.84;;;26.79;40.66
64404;BME280;50726;54.912;-8.392;2023-02-23T02:32:14;101915.47;;;30.12;36.40
64404;BME280;50726;54.912;-8.392;2023-02-23T02:48:16;101914.78;;;29.78;37.17
64404;BME280;50726;54.912;-8.392;2023-02-23T02:50:52;101920.75;;;28.70;37.89
64404;BME280;50726;54.912;-8.392;2023-02-23T02:55:56;101916.22;;;28.59;38.50
64404;BME280;50726;54.912;-8.392;2023-02-23T02:58:26;101926.59;;;27.58;39.79
64404;BME280;50726;54.912;-8.392;2023-02-23T03:00:52;101926.09;;;25.98;41.97
64404;BME280;50726;54.912;-8.392;2023-02-23T03:03:44;101914.03;;;26.58;43.29
64404;BME280;50726;54.912;-8.392;2023-02-23T03:06:56;101917.88;;;25.46;44.51
64404;BME280;50726;54.912;-8.392;2023-02-23T03:13:13;101903.97;;;27.12;41.96
64404;BME280;50726;54.912;-8.392;2023-02-23T03:19:29;101899.16;;;25.32;44.66
64404;BME280;50726;54.912;-8.392;2023-02-23T03:22:29;101894.63;;;26.54;43.44
64404;BME280;50726;54.912;-8.392;2023-02-23T03:25:28;101881.19;;;27.42;41.85
64404;BME280;50726;54.912;-8.392;2023-02-23T03:28:23;101867.59;;;29.72;39.06
64404;BME280;50726;54.912;-8.392;2023-02-23T03:31:19;101868.13;;;29.87;37.96
64404;BME280;50726;54.912;-8.392;2023-02-23T03:34:23;101862.78;;;28.32;39.04
64404;BME280;50726;54.912;-8.392;2023-02-23T03:37:45;101856.72;;;30.57;36.83
64404;BME280;50726;54.912;-8.392;2023-02-23T03:40:35;101858.56;;;29.40;37.98
64404;BME280;50726;54.912;-8.392;2023-02-23T03:43:30;101859.41;;;29.73;37.09
64404;BME280;50726;54.912;-8.392;2023-02-23T03:46:17;101856.75;;;28.97;38.51
64404;BME280;50726;54.912;-8.392;2023-02-23T03:49:06;101848.81;;;27.68;40.20
64404;BME280;50726;54.912;-8.392;2023-02-23T03:51:57;101858.63;;;28.39;39.35
64404;BME280;50726;54.912;-8.392;2023-02-23T03:54:53;101858.41;;;27.83;40.54
64404;BME280;50726;54.912;-8.392;2023-02-23T03:57:40;101863.16;;;27.80;40.72
64404;BME280;50726;54.912;-8.392;2023-02-23T04:00:29;101864.25;;;27.77;40.32
64404;BME280;50726;54.912;-8.392;2023-02-23T04:03:16;101866.38;;;27.12;41.49
64404;BME280;50726;54.912;-8.392;2023-02-23T04:06:03;101851.97;;;28.09;41.48
64404;BME280;50726;54.912;-8.392;2023-02-23T04:08:51;101850.00;;;29.35;39.71
64404;BME280;50726;54.912;-8.392;2023-02-23T04:17:17;101865.84;;;30.66;38.38
64404;BME280;50726;54.912;-8.392;2023-02-23T04:19:53;101860.59;;;31.55;37.39
64404;BME280;50726;54.912;-8.392;2023-02-23T04:22:20;101856.66;;;30.78;38.75
64404;BME280;50726;54.912;-8.392;2023-02-23T04:24:48;101862.41;;;30.64;36.63
64404;BME280;50726;54.912;-8.392;2023-02-23T04:27:15;101865.38;;;30.51;36.97
64404;BME280;50726;54.912;-8.392;2023-02-23T04:29:41;101860.34;;;29.18;37.62
64404;BME280;50726;54.912;-8.392;2023-02-23T04:32:08;101862.03;;;31.29;37.90
64404;BME280;50726;54.912;-8.392;2023-02-23T04:34:36;101855.59;;;30.60;38.50
64404;BME280;50726;54.912;-8.392;2023-02-23T04:37:02;101858.63;;;31.47;37.12
64404;BME280;50726;54.912;-8.392;2023-02-23T04:39:28;101858.25;;;30.19;37.23
64404;BME280;50726;54.912;-8.392;2023-02-23T04:41:53;101859.16;;;29.77;37.35
64404;BME280;50726;54.912;-8.392;2023-02-23T04:44:20;101851.91;;;29.44;39.67
64404;BME280;50726;54.912;-8.392;2023-02-23T04:46:46;101855.47;;;31.61;37.73
64404;BME280;50726;54.912;-8.392;2023-02-23T04:49:11;101852.38;;;32.52;37.11
64404;BME280;50726;54.912;-8.392;2023-02-23T04:51:37;101857.94;;;30.74;37.56
64404;BME280;50726;54.912;-8.392;2023-02-23T04:54:03;101855.16;;;31.25;37.12
64404;BME280;50726;54.912;-8.392;2023-02-23T04:56:30;101849.47;;;31.18;37.70
64404;BME280;50726;54.912;-8.392;2023-02-23T04:58:56;101851.41;;;30.87;37.05
64404;BME280;50726;54.912;-8.392;2023-02-23T05:01:21;101856.41;;;30.50;36.44
64404;BME280;50726;54.912;-8.392;2023-02-23T05:03:48;101859.63;;;29.82;36.67
64404;BME280;50726;54.912;-8.392;2023-02-23T05:06:15;101855.44;;;30.20;37.29
64404;BME280;50726;54.912;-8.392;2023-02-23T05:08:41;101853.06;;;29.30;36.46
64404;BME280;50726;54.912;-8.392;2023-02-23T05:11:07;101856.31;;;29.13;39.07
64404;BME280;50726;54.912;-8.392;2023-02-23T05:13:33;101863.94;;;29.73;35.99
64404;BME280;50726;54.912;-8.392;2023-02-23T05:15:59;101861.22;;;29.52;35.64
64404;BME280;50726;54.912;-8.392;2023-02-23T05:18:25;101872.41;;;28.57;36.61
64404;BME280;50726;54.912;-8.392;2023-02-23T05:20:52;101860.84;;;27.98;38.07
64404;BME280;50726;54.912;-8.392;2023-02-23T05:23:19;101864.28;;;29.14;36.26
64404;BME280;50726;54.912;-8.392;2023-02-23T05:25:46;101873.31;;;29.25;36.13
64404;BME280;50726;54.912;-8.392;2023-02-23T05:28:13;101873.41;;;28.90;36.42
64404;BME280;50726;54.912;-8.392;2023-02-23T05:30:38;101879.66;;;27.75;36.83
64404;BME280;50726;54.912;-8.392;2023-02-23T05:33:04;101874.03;;;28.37;36.58
64404;BME280;50726;54.912;-8.392;2023-02-23T05:35:30;101872.84;;;27.94;37.01
64404;BME280;50726;54.912;-8.392;2023-02-23T05:37:55;101880.06;;;29.19;35.76
64404;BME280;50726;54.912;-8.392;2023-02-23T05:40:21;101876.56;;;28.96;36.31
64404;BME280;50726;54.912;-8.392;2023-02-23T05:42:48;101877.78;;;28.80;36.02
64404;BME280;50726;54.912;-8.392;2023-02-23T05:45:13;101868.47;;;29.07;35.96
64404;BME280;50726;54.912;-8.392;2023-02-23T05:47:39;101864.38;;;29.57;36.10
64404;BME280;50726;54.912;-8.392;2023-02-23T05:50:07;101866.78;;;30.76;35.54
64404;BME280;50726;54.912;-8.392;2023-02-23T05:52:38;101864.97;;;30.55;35.57
64404;BME280;50726;54.912;-8.392;2023-02-23T05:55:07;101869.13;;;31.90;35.07
64404;BME280;50726;54.912;-8.392;2023-02-23T05:57:34;101860.31;;;31.48;34.20
64404;BME280;50726;54.912;-8.392;2023-02-23T05:59:59;101871.34;;;29.81;36.15
64404;BME280;50726;54.912;-8.392;2023-02-23T06:02:25;101877.72;;;30.44;35.85
64404;BME280;50726;54.912;-8.392;2023-02-23T06:04:51;101870.88;;;29.21;37.24
64404;BME280;50726;54.912;-8.392;2023-02-23T06:07:17;101875.09;;;28.57;37.79
64404;BME280;50726;54.912;-8.392;2023-02-23T06:09:43;101868.00;;;31.33;35.63
64404;BME280;50726;54.912;-8.392;2023-02-23T06:12:09;101877.34;;;28.52;37.70
64404;BME280;50726;54.912;-8.392;2023-02-23T06:14:35;101881.31;;;27.65;38.81
64404;BME280;50726;54.912;-8.392;2023-02-23T06:17:01;101885.19;;;27.96;39.18
64404;BME280;50726;54.912;-8.392;2023-02-23T06:19:27;101873.53;;;27.84;39.12
64404;BME280;50726;54.912;-8.392;2023-02-23T06:21:52;101875.31;;;28.20;39.03
64404;BME280;50726;54.912;-8.392;2023-02-23T06:24:18;101877.25;;;26.97;40.17
64404;BME280;50726;54.912;-8.392;2023-02-23T06:26:44;101868.56;;;27.91;38.92
64404;BME280;50726;54.912;-8.392;2023-02-23T06:29:11;101871.66;;;28.21;39.07
64404;BME280;50726;54.912;-8.392;2023-02-23T06:31:39;101867.81;;;29.59;37.93
64404;BME280;50726;54.912;-8.392;2023-02-23T06:34:04;101860.72;;;29.79;36.91
64404;BME280;50726;54.912;-8.392;2023-02-23T06:36:30;101873.44;;;29.23;37.58
64404;BME280;50726;54.912;-8.392;2023-02-23T06:38:57;101864.41;;;29.45;37.29
64404;BME280;50726;54.912;-8.392;2023-02-23T06:41:23;101878.03;;;29.11;37.66
64404;BME280;50726;54.912;-8.392;2023-02-23T06:43:49;101878.78;;;29.88;37.82
64404;BME280;50726;54.912;-8.392;2023-02-23T06:46:17;101873.91;;;30.25;38.11
64404;BME280;50726;54.912;-8.392;2023-02-23T06:48:42;101867.28;;;30.08;38.42
64404;BME280;50726;54.912;-8.392;2023-02-23T06:51:08;101871.34;;;29.27;39.04
64404;BME280;50726;54.912;-8.392;2023-02-23T06:53:34;101867.53;;;30.05;37.82
64404;BME280;50726;54.912;-8.392;2023-02-23T06:56:02;101867.28;;;30.08;37.55
64404;BME280;50726;54.912;-8.392;2023-02-23T06:58:28;101877.69;;;29.37;38.10
64404;BME280;50726;54.912;-8.392;2023-02-23T07:00:55;101874.34;;;29.12;38.09
64404;BME280;50726;54.912;-8.392;2023-02-23T07:03:23;101878.13;;;29.10;39.26
64404;BME280;50726;54.912;-8.392;2023-02-23T07:05:51;101874.66;;;28.52;38.81
64404;BME280;50726;54.912;-8.392;2023-02-23T07:08:19;101879.06;;;28.87;39.41
64404;BME280;50726;54.912;-8.392;2023-02-23T07:10:45;101875.03;;;29.58;38.30
64404;BME280;50726;54.912;-8.392;2023-02-23T07:13:11;101870.44;;;29.05;37.30
64404;BME280;50726;54.912;-8.392;2023-02-23T07:15:39;101880.03;;;28.52;37.80
64404;BME280;50726;54.912;-8.392;2023-02-23T07:18:07;101870.97;;;28.30;38.03
64404;BME280;50726;54.912;-8.392;2023-02-23T07:20:33;101870.75;;;29.98;38.02
64404;BME280;50726;54.912;-8.392;2023-02-23T07:23:00;101877.78;;;29.03;37.90
64404;BME280;50726;54.912;-8.392;2023-02-23T07:25:29;101871.88;;;27.34;40.34
64404;BME280;50726;54.912;-8.392;2023-02-23T07:27:55;101865.53;;;28.07;39.77
64404;BME280;50726;54.912;-8.392;2023-02-23T07:30:21;101879.34;;;27.18;39.89
64404;BME280;50726;54.912;-8.392;2023-02-23T07:32:51;101870.88;;;26.09;42.98
64404;BME280;50726;54.912;-8.392;2023-02-23T07:35:18;101871.97;;;27.57;41.03
64404;BME280;50726;54.912;-8.392;2023-02-23T07:37:44;101877.31;;;27.46;40.25
64404;BME280;50726;54.912;-8.392;2023-02-23T07:40:10;101864.91;;;29.06;39.40
64404;BME280;50726;54.912;-8.392;2023-02-23T07:42:36;101857.09;;;29.36;38.43
64404;BME280;50726;54.912;-8.392;2023-02-23T07:45:02;101870.88;;;29.54;38.04
64404;BME280;50726;54.912;-8.392;2023-02-23T07:47:28;101866.88;;;31.36;37.10
64404;BME280;50726;54.912;-8.392;2023-02-23T07:49:59;101879.47;;;30.02;37.70
64404;BME280;50726;54.912;-8.392;2023-02-23T07:52:27;101870.44;;;30.75;37.53
64404;BME280;50726;54.912;-8.392;2023-02-23T07:54:53;101877.56;;;29.39;38.17
64404;BME280;50726;54.912;-8.392;2023-02-23T07:57:20;101882.34;;;28.91;39.01
64404;BME280;50726;54.912;-8.392;2023-02-23T07:59:49;101877.38;;;31.68;38.14
64404;BME280;50726;54.912;-8.392;2023-02-23T08:02:15;101878.97;;;30.71;38.16
64404;BME280;50726;54.912;-8.392;2023-02-23T08:04:41;101870.31;;;30.77;37.65
64404;BME280;50726;54.912;-8.392;2023-02-23T08:07:08;101875.44;;;29.54;38.53
64404;BME280;50726;54.912;-8.392;2023-02-23T08:09:35;101887.59;;;28.47;39.56
64404;BME280;50726;54.912;-8.392;2023-02-23T08:12:01;101875.97;;;29.90;38.92
64404;BME280;50726;54.912;-8.392;2023-02-23T08:14:27;101881.44;;;30.52;37.80
64404;BME280;50726;54.912;-8.392;2023-02-23T08:16:53;101886.16;;;31.01;37.38
64404;BME280;50726;54.912;-8.392;2023-02-23T08:19:19;101888.00;;;29.65;38.27
64404;BME280;50726;54.912;-8.392;2023-02-23T08:21:50;101888.19;;;31.29;36.85
64404;BME280;50726;54.912;-8.392;2023-02-23T08:24:16;101885.16;;;31.02;36.58
64404;BME280;50726;54.912;-8.392;2023-02-23T08:26:41;101898.88;;;31.50;36.44
64404;BME280;50726;54.912;-8.392;2023-02-23T08:29:08;101893.31;;;31.61;36.58
64404;BME280;50726;54.912;-8.392;2023-02-23T08:31:35;101902.94;;;31.15;36.64
64404;BME280;50726;54.912;-8.392;2023-02-23T08:34:01;101903.84;;;31.35;36.88
64404;BME280;50726;54.912;-8.392;2023-02-23T08:36:27;101907.63;;;31.13;36.85
64404;BME280;50726;54.912;-8.392;2023-02-23T08:38:53;101895.84;;;32.12;36.06
64404;BME280;50726;54.912;-8.392;2023-02-23T08:41:19;101899.59;;;29.00;38.78
64404;BME280;50726;54.912;-8.392;2023-02-23T08:43:46;101896.06;;;30.50;37.75
64404;BME280;50726;54.912;-8.392;2023-02-23T08:46:12;101889.53;;;30.84;37.05
64404;BME280;50726;54.912;-8.392;2023-02-23T08:48:38;101892.94;;;30.86;36.85
64404;BME280;50726;54.912;-8.392;2023-02-23T08:51:05;101891.16;;;32.52;36.59
64404;BME280;50726;54.912;-8.392;2023-02-23T08:53:32;101897.34;;;32.25;36.17
64404;BME280;50726;54.912;-8.392;2023-02-23T08:55:58;101890.47;;;31.73;36.30
64404;BME280;50726;54.912;-8.392;2023-02-23T08:58:26;101887.63;;;31.74;36.29
64404;BME280;50726;54.912;-8.392;2023-02-23T09:00:51;101893.34;;;31.42;36.60
64404;BME280;50726;54.912;-8.392;2023-02-23T09:03:18;101893.25;;;31.02;36.63
64404;BME280;50726;54.912;-8.392;2023-02-23T09:05:45;101884.16;;;31.23;37.64
64404;BME280;50726;54.912;-8.392;2023-02-23T09:08:13;101877.03;;;30.20;38.24
64404;BME280;50726;54.912;-8.392;2023-02-23T09:10:40;101871.44;;;30.74;38.12
64404;BME280;50726;54.912;-8.392;2023-02-23T09:13:09;101871.06;;;30.89;38.25
64404;BME280;50726;54.912;-8.392;2023-02-23T09:15:40;101875.81;;;30.34;38.54
64404;BME280;50726;54.912;-8.392;2023-02-23T09:18:08;101882.31;;;29.46;39.92
64404;BME280;50726;54.912;-8.392;2023-02-23T09:20:35;101883.44;;;28.77;40.48
64404;BME280;50726;54.912;-8.392;2023-02-23T09:23:01;101878.31;;;29.29;40.52
64404;BME280;50726;54.912;-8.392;2023-02-23T09:25:26;101887.94;;;30.71;39.30
64404;BME280;50726;54.912;-8.392;2023-02-23T09:27:55;101896.63;;;30.22;39.70
64404;BME280;50726;54.912;-8.392;2023-02-23T09:30:22;101892.34;;;30.20;40.02
64404;BME280;50726;54.912;-8.392;2023-02-23T09:32:50;101895.53;;;27.78;43.25
64404;BME280;50726;54.912;-8.392;2023-02-23T09:35:21;101900.09;;;28.93;43.65
64404;BME280;50726;54.912;-8.392;2023-02-23T09:37:50;101890.16;;;29.92;42.63
64404;BME280;50726;54.912;-8.392;2023-02-23T09:40:18;101883.81;;;29.93;42.81
64404;BME280;50726;54.912;-8.392;2023-02-23T09:45:40;101888.94;;;27.82;46.79
64404;BME280;50726;54.912;-8.392;2023-02-23T09:48:32;101887.47;;;27.78;47.71
64404;BME280;50726;54.912;-8.392;2023-02-23T09:50:58;101892.22;;;29.02;46.65
64404;BME280;50726;54.912;-8.392;2023-02-23T09:53:35;101892.44;;;29.10;46.50
64404;BME280;50726;54.912;-8.392;2023-02-23T09:56:09;101897.13;;;28.85;47.26
64404;BME280;50726;54.912;-8.392;2023-02-23T09:58:37;101900.78;;;28.38;48.42
64404;BME280;50726;54.912;-8.392;2023-02-23T10:04:26;101894.34;;;27.58;50.86
64404;BME280;50726;54.912;-8.392;2023-02-23T10:15:51;101915.91;;;25.91;52.52
64404;BME280;50726;54.912;-8.392;2023-02-23T10:18:35;101924.66;;;24.96;54.27
64404;BME280;50726;54.912;-8.392;2023-02-23T10:21:07;101922.44;;;25.59;55.10
64404;BME280;50726;54.912;-8.392;2023-02-23T10:24:13;101901.06;;;26.25;54.43
64404;BME280;50726;54.912;-8.392;2023-02-23T10:26:41;101903.91;;;27.00;53.44
64404;BME280;50726;54.912;-8.392;2023-02-23T10:29:40;101898.78;;;26.19;53.32
64404;BME280;50726;54.912;-8.392;2023-02-23T10:32:44;101894.50;;;27.43;52.21
64404;BME280;50726;54.912;-8.392;2023-02-23T10:35:16;101886.69;;;27.16;53.10
64404;BME280;50726;54.912;-8.392;2023-02-23T10:37:41;101880.19;;;29.61;49.05
64404;BME280;50726;54.912;-8.392;2023-02-23T10:40:15;101877.34;;;28.63;50.45
64404;BME280;50726;54.912;-8.392;2023-02-23T10:42:41;101883.81;;;28.38;50.68
64404;BME280;50726;54.912;-8.392;2023-02-23T10:45:17;101870.91;;;29.97;48.03
64404;BME280;50726;54.912;-8.392;2023-02-23T10:50:27;101874.34;;;29.12;49.40
64404;BME280;50726;54.912;-8.392;2023-02-23T10:52:58;101882.44;;;29.45;49.13
64404;BME280;50726;54.912;-8.392;2023-02-23T10:55:31;101875.25;;;29.88;47.89
64404;BME280;50726;54.912;-8.392;2023-02-23T10:58:09;101876.63;;;29.17;48.58
64404;BME280;50726;54.912;-8.392;2023-02-23T11:00:57;101871.19;;;28.84;50.14
64404;BME280;50726;54.912;-8.392;2023-02-23T11:03:39;101871.31;;;28.60;49.69
64404;BME280;50726;54.912;-8.392;2023-02-23T11:06:26;101847.03;;;30.13;48.93
64404;BME280;50726;54.912;-8.392;2023-02-23T11:08:52;101863.97;;;27.20;50.63
64404;BME280;50726;54.912;-8.392;2023-02-23T11:11:24;101857.22;;;29.67;49.07
64404;BME280;50726;54.912;-8.392;2023-02-23T11:13:51;101857.34;;;28.77;49.65
64404;BME280;50726;54.912;-8.392;2023-02-23T11:16:25;101853.31;;;29.39;50.32
64404;BME280;50726;54.912;-8.392;2023-02-23T11:19:04;101849.22;;;27.50;51.12
64404;BME280;50726;54.912;-8.392;2023-02-23T11:24:04;101864.94;;;27.19;52.51
64404;BME280;50726;54.912;-8.392;2023-02-23T11:26:40;101865.97;;;28.37;50.97
64404;BME280;50726;54.912;-8.392;2023-02-23T11:31:52;101858.47;;;28.18;51.15
64404;BME280;50726;54.912;-8.392;2023-02-23T11:34:33;101852.06;;;27.96;50.63
64404;BME280;50726;54.912;-8.392;2023-02-23T11:37:01;101859.69;;;26.93;52.01
64404;BME280;50726;54.912;-8.392;2023-02-23T11:39:27;101863.56;;;25.85;53.85
64404;BME280;50726;54.912;-8.392;2023-02-23T11:44:42;101850.28;;;25.15;54.63
64404;BME280;50726;54.912;-8.392;2023-02-23T11:47:16;101858.88;;;26.53;53.31
64404;BME280;50726;54.912;-8.392;2023-02-23T11:49:44;101861.81;;;25.30;55.47
64404;BME280;50726;54.912;-8.392;2023-02-23T11:52:17;101853.31;;;26.31;54.72
64404;BME280;50726;54.912;-8.392;2023-02-23T11:54:55;101846.88;;;27.45;52.58
64404;BME280;50726;54.912;-8.392;2023-02-23T11:57:23;101859.31;;;27.11;53.34
64404;BME280;50726;54.912;-8.392;2023-02-23T11:59:50;101852.38;;;27.44;53.72
64404;BME280;50726;54.912;-8.392;2023-02-23T12:02:27;101842.38;;;27.46;53.17
64404;BME280;50726;54.912;-8.392;2023-02-23T12:05:05;101848.00;;;27.18;53.86
64404;BME280;50726;54.912;-8.392;2023-02-23T12:07:35;101839.38;;;26.25;56.31
64404;BME280;50726;54.912;-8.392;2023-02-23T12:10:26;101834.22;;;27.23;55.15
64404;BME280;50726;54.912;-8.392;2023-02-23T12:13:02;101839.06;;;27.18;54.26
64404;BME280;50726;54.912;-8.392;2023-02-23T12:15:56;101830.97;;;26.69;55.81
64404;BME280;50726;54.912;-8.392;2023-02-23T12:20:55;101836.38;;;27.18;55.68
64404;BME280;50726;54.912;-8.392;2023-02-23T12:23:25;101826.34;;;29.17;52.97
64404;BME280;50726;54.912;-8.392;2023-02-23T12:26:09;101827.06;;;30.67;50.36
64404;BME280;50726;54.912;-8.392;2023-02-23T12:28:45;101826.34;;;30.02;48.91
64404;BME280;50726;54.912;-8.392;2023-02-23T12:36:49;101842.03;;;27.51;51.92
64404;BME280;50726;54.912;-8.392;2023-02-23T12:44:58;101855.66;;;27.36;57.69
64404;BME280;50726;54.912;-8.392;2023-02-23T12:52:51;101849.44;;;27.71;55.76
64404;BME280;50726;54.912;-8.392;2023-02-23T12:55:32;101836.38;;;29.04;52.26
64404;BME280;50726;54.912;-8.392;2023-02-23T12:58:21;101824.56;;;30.44;50.28
64404;BME280;50726;54.912;-8.392;2023-02-23T13:00:56;101813.78;;;31.34;48.69
64404;BME280;50726;54.912;-8.392;2023-02-23T13:11:45;101792.78;;;31.76;49.25
64404;BME280;50726;54.912;-8.392;2023-02-23T13:16:48;101784.31;;;28.82;50.77
64404;BME280;50726;54.912;-8.392;2023-02-23T13:19:25;101791.47;;;29.80;50.13
64404;BME280;50726;54.912;-8.392;2023-02-23T13:22:34;101785.28;;;30.20;50.20
64404;BME280;50726;54.912;-8.392;2023-02-23T13:25:03;101788.69;;;28.94;51.73
64404;BME280;50726;54.912;-8.392;2023-02-23T13:27:41;101783.84;;;29.42;50.59
64404;BME280;50726;54.912;-8.392;2023-02-23T13:30:10;101790.22;;;27.13;54.54
64404;BME280;50726;54.912;-8.392;2023-02-23T13:32:36;101791.13;;;26.25;56.35
64404;BME280;50726;54.912;-8.392;2023-02-23T13:35:05;101785.09;;;26.48;55.83
64404;BME280;50726;54.912;-8.392;2023-02-23T13:37:41;101796.06;;;25.80;57.79
64404;BME280;50726;54.912;-8.392;2023-02-23T13:53:44;101768.38;;;29.87;51.94
64404;BME280;50726;54.912;-8.392;2023-02-23T13:56:21;101760.72;;;30.74;50.76
64404;BME280;50726;54.912;-8.392;2023-02-23T13:58:53;101762.16;;;30.88;51.44
64404;BME280;50726;54.912;-8.392;2023-02-23T14:04:02;101765.59;;;31.00;50.85
64404;BME280;50726;54.912;-8.392;2023-02-23T14:06:30;101755.72;;;32.06;48.76
64404;BME280;50726;54.912;-8.392;2023-02-23T14:09:52;101758.31;;;32.26;48.94
64404;BME280;50726;54.912;-8.392;2023-02-23T14:11:55;101757.47;;;29.03;51.45
64404;BME280;50726;54.912;-8.392;2023-02-23T14:22:29;101751.00;;;28.94;50.21
64404;BME280;50726;54.912;-8.392;2023-02-23T14:28:02;101754.44;;;27.48;52.63
64404;BME280;50726;54.912;-8.392;2023-02-23T14:30:45;101739.06;;;28.87;52.56
64404;BME280;50726;54.912;-8.392;2023-02-23T14:39:00;101735.47;;;30.24;51.05
64404;BME280;50726;54.912;-8.392;2023-02-23T14:41:52;101731.19;;;30.12;51.35
64404;BME280;50726;54.912;-8.392;2023-02-23T14:44:28;101712.16;;;29.30;52.13
64404;BME280;50726;54.912;-8.392;2023-02-23T14:47:08;101728.13;;;30.05;50.53
64404;BME280;50726;54.912;-8.392;2023-02-23T14:49:46;101736.88;;;29.56;51.56
64404;BME280;50726;54.912;-8.392;2023-02-23T14:52:20;101728.38;;;28.07;53.11
64404;BME280;50726;54.912;-8.392;2023-02-23T14:54:47;101744.38;;;26.91;52.84
64404;BME280;50726;54.912;-8.392;2023-02-23T14:57:20;101739.84;;;25.91;53.52
64404;BME280;50726;54.912;-8.392;2023-02-23T14:59:59;101752.09;;;26.59;54.57
64404;BME280;50726;54.912;-8.392;2023-02-23T15:02:27;101742.22;;;26.97;53.44
64404;BME280;50726;54.912;-8.392;2023-02-23T15:04:53;101735.47;;;27.27;52.28
64404;BME280;50726;54.912;-8.392;2023-02-23T15:07:35;101728.94;;;29.96;49.76
64404;BME280;50726;54.912;-8.392;2023-02-23T15:10:11;101736.25;;;29.31;49.58
64404;BME280;50726;54.912;-8.392;2023-02-23T15:12:43;101753.59;;;27.36;51.58
64404;BME280;50726;54.912;-8.392;2023-02-23T15:15:23;101746.47;;;25.46;55.05
64404;BME280;50726;54.912;-8.392;2023-02-23T15:17:52;101742.38;;;25.28;55.46
64404;BME280;50726;54.912;-8.392;2023-02-23T15:20:23;101740.47;;;26.21;54.13